sensor_id;sensor_type;location;lat;lon;timestamp;P1;P2;P0
61804;PMS7003;47725;47.912;7.356;2024-02-26T00:02:48;10.76;9.78;
61804;PMS7003;47725;47.912;7.356;2024-02-26T00:06:48;1.95;1.95;
61804;PMS7003;47725;47.912;7.356;2024-02-26T00:10:48;1.95;1.95;
61804;PMS7003;47725;47.912;7.356;2024-02-26T00:14:48;1.95;1.95;
61804;PMS7003;47725;47.912;7.356;2024-02-26T00:18:48;1.95;1.95;
61804;PMS7003;47725;47.912;7.356;2024-02-26T00:22:48;1.95;1.95;
61804;PMS7003;47725;47.912;7.356;2024-02-26T00:26:48;0.00;0.00;
61804;PMS7003;47725;47.912;7.356;2024-02-26T00:30:48;0.00;0.00;
61804;PMS7003;47725;47.912;7.356;2024-02-26T00:34:48;0.00;0.00;
61804;PMS7003;47725;47.912;7.356;2024-02-26T00:38:48;0.00;0.00;
61804;PMS7003;47725;47.912;7.356;2024-02-26T00:42:48;0.00;0.00;
61804;PMS7003;47725;47.912;7.356;2024-02-26T00:46:48;2.92;1.94;
61804;PMS7003;47725;47.912;7.356;2024-02-26T00:50:48;2.92;1.94;
61804;PMS7003;47725;47.912;7.356;2024-02-26T00:54:48;2.92;1.94;
61804;PMS7003;47725;47.912;7.356;2024-02-26T00:58:48;0.97;0.97;
61804;PMS7003;47725;47.912;7.356;2024-02-26T01:02:48;0.97;0.97;
61804;PMS7003;47725;47.912;7.356;2024-02-26T01:06:48;0.00;0.00;
61804;PMS7003;47725;47.912;7.356;2024-02-26T01:10:48;0.00;0.00;
61804;PMS7003;47725;47.912;7.356;2024-02-26T01:14:48;0.00;0.00;
61804;PMS7003;47725;47.912;7.356;2024-02-26T01:18:48;0.00;0.00;
61804;PMS7003;47725;47.912;7.356;2024-02-26T01:22:48;0.00;0.00;
61804;PMS7003;47725;47.912;7.356;2024-02-26T01:26:48;0.97;0.97;
61804;PMS7003;47725;47.912;7.356;2024-02-26T01:30:48;0.97;0.97;
61804;PMS7003;47725;47.912;7.356;2024-02-26T01:34:48;0.97;0.97;
61804;PMS7003;47725;47.912;7.356;2024-02-26T01:38:48;0.00;0.00;
61804;PMS7003;47725;47.912;7.356;2024-02-26T01:42:48;0.00;0.00;
61804;PMS7003;47725;47.912;7.356;2024-02-26T01:46:48;1.93;1.93;
61804;PMS7003;47725;47.912;7.356;2024-02-26T01:50:48;1.93;1.93;
61804;PMS7003;47725;47.912;7.356;2024-02-26T01:54:48;1.93;1.93;
61804;PMS7003;47725;47.912;7.356;2024-02-26T01:58:48;2.89;2.89;
61804;PMS7003;47725;47.912;7.356;2024-02-26T02:02:48;2.89;2.89;
61804;PMS7003;47725;47.912;7.356;2024-02-26T02:06:48;2.88;1.92;
61804;PMS7003;47725;47.912;7.356;2024-02-26T02:10:48;2.88;1.92;
61804;PMS7003;47725;47.912;7.356;2024-02-26T02:14:48;2.88;1.92;
61804;PMS7003;47725;47.912;7.356;2024-02-26T02:18:48;1.92;1.92;
61804;PMS7003;47725;47.912;7.356;2024-02-26T02:22:48;1.92;1.92;
61804;PMS7003;47725;47.912;7.356;2024-02-26T02:26:48;3.83;3.83;
61804;PMS7003;47725;47.912;7.356;2024-02-26T02:30:48;3.83;3.83;
61804;PMS7003;47725;47.912;7.356;2024-02-26T02:34:48;3.83;3.83;
61804;PMS7003;47725;47.912;7.356;2024-02-26T02:38:48;1.91;1.91;
61804;PMS7003;47725;47.912;7.356;2024-02-26T02:42:48;1.91;1.91;
61804;PMS7003;47725;47.912;7.356;2024-02-26T02:46:48;1.91;1.91;
61804;PMS7003;47725;47.912;7.356;2024-02-26T02:50:48;1.91;1.91;
61804;PMS7003;47725;47.912;7.356;2024-02-26T02:54:48;1.91;1.91;
61804;PMS7003;47725;47.912;7.356;2024-02-26T02:58:48;2.86;0.95;
61804;PMS7003;47725;47.912;7.356;2024-02-26T03:02:48;2.86;0.95;
61804;PMS7003;47725;47.912;7.356;2024-02-26T03:06:48;0.95;0.95;
61804;PMS7003;47725;47.912;7.356;2024-02-26T03:10:48;0.95;0.95;
61804;PMS7003;47725;47.912;7.356;2024-02-26T03:14:48;0.95;0.95;
61804;PMS7003;47725;47.912;7.356;2024-02-26T03:18:48;2.85;1.90;
61804;PMS7003;47725;47.912;7.356;2024-02-26T03:22:48;2.85;1.90;
61804;PMS7003;47725;47.912;7.356;2024-02-26T03:26:48;0.00;0.00;
61804;PMS7003;47725;47.912;7.356;2024-02-26T03:30:47;0.00;0.00;
61804;PMS7003;47725;47.912;7.356;2024-02-26T03:34:47;0.00;0.00;
61804;PMS7003;47725;47.912;7.356;2024-02-26T03:38:48;1.89;1.89;
61804;PMS7003;47725;47.912;7.356;2024-02-26T03:42:47;1.89;1.89;
61804;PMS7003;47725;47.912;7.356;2024-02-26T03:46:47;1.89;1.89;
61804;PMS7003;47725;47.912;7.356;2024-02-26T03:50:47;1.89;1.89;
61804;PMS7003;47725;47.912;7.356;2024-02-26T03:54:47;1.89;1.89;
61804;PMS7003;47725;47.912;7.356;2024-02-26T03:58:47;2.83;2.83;
61804;PMS7003;47725;47.912;7.356;2024-02-26T04:02:48;2.83;2.83;
61804;PMS7003;47725;47.912;7.356;2024-02-26T04:06:47;1.89;1.89;
61804;PMS7003;47725;47.912;7.356;2024-02-26T04:10:47;1.89;1.89;
61804;PMS7003;47725;47.912;7.356;2024-02-26T04:14:47;1.89;1.89;
61804;PMS7003;47725;47.912;7.356;2024-02-26T04:18:47;1.88;1.88;
61804;PMS7003;47725;47.912;7.356;2024-02-26T04:22:47;1.88;1.88;
61804;PMS7003;47725;47.912;7.356;2024-02-26T04:26:47;1.88;1.88;
61804;PMS7003;47725;47.912;7.356;2024-02-26T04:30:47;1.88;1.88;
61804;PMS7003;47725;47.912;7.356;2024-02-26T04:34:47;1.88;1.88;
61804;PMS7003;47725;47.912;7.356;2024-02-26T04:38:47;0.94;0.94;
61804;PMS7003;47725;47.912;7.356;2024-02-26T04:42:47;0.94;0.94;
61804;PMS7003;47725;47.912;7.356;2024-02-26T04:46:47;1.89;1.89;
61804;PMS7003;47725;47.912;7.356;2024-02-26T04:50:47;1.89;1.89;
61804;PMS7003;47725;47.912;7.356;2024-02-26T04:54:47;1.89;1.89;
61804;PMS7003;47725;47.912;7.356;2024-02-26T04:58:47;2.83;1.88;
61804;PMS7003;47725;47.912;7.356;2024-02-26T05:02:47;2.83;1.88;
61804;PMS7003;47725;47.912;7.356;2024-02-26T05:06:47;2.82;2.82;
61804;PMS7003;47725;47.912;7.356;2024-02-26T05:10:47;2.82;2.82;
61804;PMS7003;47725;47.912;7.356;2024-02-26T05:14:47;2.82;2.82;
61804;PMS7003;47725;47.912;7.356;2024-02-26T05:18:47;5.64;5.64;
61804;PMS7003;47725;47.912;7.356;2024-02-26T05:22:47;5.64;5.64;
61804;PMS7003;47725;47.912;7.356;2024-02-26T05:26:48;4.70;4.70;
61804;PMS7003;47725;47.912;7.356;2024-02-26T05:30:47;4.70;4.70;
61804;PMS7003;47725;47.912;7.356;2024-02-26T05:34:47;4.70;4.70;
61804;PMS7003;47725;47.912;7.356;2024-02-26T05:38:48;5.63;4.69;
61804;PMS7003;47725;47.912;7.356;2024-02-26T05:42:47;5.63;4.69;
61804;PMS7003;47725;47.912;7.356;2024-02-26T05:46:47;2.82;2.82;
61804;PMS7003;47725;47.912;7.356;2024-02-26T05:50:47;2.82;2.82;
61804;PMS7003;47725;47.912;7.356;2024-02-26T05:54:47;2.82;2.82;
61804;PMS7003;47725;47.912;7.356;2024-02-26T05:58:47;6.57;5.63;
61804;PMS7003;47725;47.912;7.356;2024-02-26T06:02:47;6.57;5.63;
61804;PMS7003;47725;47.912;7.356;2024-02-26T06:06:47;4.69;3.75;
61804;PMS7003;47725;47.912;7.356;2024-02-26T06:10:47;4.69;3.75;
61804;PMS7003;47725;47.912;7.356;2024-02-26T06:14:47;4.69;3.75;
61804;PMS7003;47725;47.912;7.356;2024-02-26T06:18:47;1.87;1.87;
61804;PMS7003;47725;47.912;7.356;2024-02-26T06:22:47;1.87;1.87;
61804;PMS7003;47725;47.912;7.356;2024-02-26T06:26:47;53.26;43.92;
61804;PMS7003;47725;47.912;7.356;2024-02-26T06:30:47;53.26;43.92;
61804;PMS7003;47725;47.912;7.356;2024-02-26T06:34:47;53.26;43.92;
61804;PMS7003;47725;47.912;7.356;2024-02-26T06:38:47;33.69;31.82;
61804;PMS7003;47725;47.912;7.356;2024-02-26T06:42:47;33.69;31.82;
61804;PMS7003;47725;47.912;7.356;2024-02-26T06:46:47;26.25;18.75;
61804;PMS7003;47725;47.912;7.356;2024-02-26T06:50:47;26.25;18.75;
61804;PMS7003;47725;47.912;7.356;2024-02-26T06:54:47;26.25;18.75;
61804;PMS7003;47725;47.912;7.356;2024-02-26T06:58:47;7.49;3.75;
61804;PMS7003;47725;47.912;7.356;2024-02-26T07:02:47;7.49;3.75;
61804;PMS7003;47725;47.912;7.356;2024-02-26T07:06:47;10.28;7.48;
61804;PMS7003;47725;47.912;7.356;2024-02-26T07:10:47;10.28;7.48;
61804;PMS7003;47725;47.912;7.356;2024-02-26T07:14:47;10.28;7.48;
61804;PMS7003;47725;47.912;7.356;2024-02-26T07:18:47;25.24;21.50;
61804;PMS7003;47725;47.912;7.356;2024-02-26T07:22:47;25.24;21.50;
61804;PMS7003;47725;47.912;7.356;2024-02-26T07:26:47;26.16;22.42;
61804;PMS7003;47725;47.912;7.356;2024-02-26T07:30:47;26.16;22.42;
61804;PMS7003;47725;47.912;7.356;2024-02-26T07:34:47;26.16;22.42;
61804;PMS7003;47725;47.912;7.356;2024-02-26T07:38:47;12.11;10.24;
61804;PMS7003;47725;47.912;7.356;2024-02-26T07:42:47;12.11;10.24;
61804;PMS7003;47725;47.912;7.356;2024-02-26T07:46:47;3.72;1.86;
61804;PMS7003;47725;47.912;7.356;2024-02-26T07:50:47;3.72;1.86;
61804;PMS7003;47725;47.912;7.356;2024-02-26T07:54:47;3.72;1.86;
61804;PMS7003;47725;47.912;7.356;2024-02-26T07:58:47;4.66;2.79;
61804;PMS7003;47725;47.912;7.356;2024-02-26T08:02:47;4.66;2.79;
61804;PMS7003;47725;47.912;7.356;2024-02-26T08:06:47;3.72;3.72;
61804;PMS7003;47725;47.912;7.356;2024-02-26T08:10:47;3.72;3.72;
61804;PMS7003;47725;47.912;7.356;2024-02-26T08:14:47;3.72;3.72;
61804;PMS7003;47725;47.912;7.356;2024-02-26T08:18:47;4.65;3.72;
61804;PMS7003;47725;47.912;7.356;2024-02-26T08:22:47;4.65;3.72;
61804;PMS7003;47725;47.912;7.356;2024-02-26T08:26:47;2.79;2.79;
61804;PMS7003;47725;47.912;7.356;2024-02-26T08:30:47;2.79;2.79;
61804;PMS7003;47725;47.912;7.356;2024-02-26T08:34:47;2.79;2.79;
61804;PMS7003;47725;47.912;7.356;2024-02-26T08:38:47;3.74;3.74;
61804;PMS7003;47725;47.912;7.356;2024-02-26T08:42:47;3.74;3.74;
61804;PMS7003;47725;47.912;7.356;2024-02-26T08:46:47;7.44;7.44;
61804;PMS7003;47725;47.912;7.356;2024-02-26T08:50:47;7.44;7.44;
61804;PMS7003;47725;47.912;7.356;2024-02-26T08:54:47;7.44;7.44;
61804;PMS7003;47725;47.912;7.356;2024-02-26T08:58:47;3.73;1.87;
61804;PMS7003;47725;47.912;7.356;2024-02-26T09:02:47;3.73;1.87;
61804;PMS7003;47725;47.912;7.356;2024-02-26T09:06:48;4.68;4.68;
61804;PMS7003;47725;47.912;7.356;2024-02-26T09:10:47;4.68;4.68;
61804;PMS7003;47725;47.912;7.356;2024-02-26T09:14:47;4.68;4.68;
61804;PMS7003;47725;47.912;7.356;2024-02-26T09:18:47;5.63;3.75;
61804;PMS7003;47725;47.912;7.356;2024-02-26T09:22:47;5.63;3.75;
61804;PMS7003;47725;47.912;7.356;2024-02-26T09:26:47;3.75;3.75;
61804;PMS7003;47725;47.912;7.356;2024-02-26T09:30:47;3.75;3.75;
61804;PMS7003;47725;47.912;7.356;2024-02-26T09:34:47;3.75;3.75;
61804;PMS7003;47725;47.912;7.356;2024-02-26T09:38:47;2.82;2.82;
61804;PMS7003;47725;47.912;7.356;2024-02-26T09:42:47;2.82;2.82;
61804;PMS7003;47725;47.912;7.356;2024-02-26T09:46:47;5.64;5.64;
61804;PMS7003;47725;47.912;7.356;2024-02-26T09:50:47;5.64;5.64;
61804;PMS7003;47725;47.912;7.356;2024-02-26T09:54:47;5.64;5.64;
61804;PMS7003;47725;47.912;7.356;2024-02-26T09:58:47;3.76;3.76;
61804;PMS7003;47725;47.912;7.356;2024-02-26T10:02:47;3.76;3.76;
61804;PMS7003;47725;47.912;7.356;2024-02-26T10:06:47;3.78;3.78;
61804;PMS7003;47725;47.912;7.356;2024-02-26T10:10:47;3.78;3.78;
61804;PMS7003;47725;47.912;7.356;2024-02-26T10:14:47;3.78;3.78;
61804;PMS7003;47725;47.912;7.356;2024-02-26T10:18:47;3.83;3.83;
61804;PMS7003;47725;47.912;7.356;2024-02-26T10:22:47;3.83;3.83;
61804;PMS7003;47725;47.912;7.356;2024-02-26T10:26:47;1.92;1.92;
61804;PMS7003;47725;47.912;7.356;2024-02-26T10:30:47;1.92;1.92;
61804;PMS7003;47725;47.912;7.356;2024-02-26T10:34:47;1.92;1.92;
61804;PMS7003;47725;47.912;7.356;2024-02-26T10:38:47;3.82;3.82;
61804;PMS7003;47725;47.912;7.356;2024-02-26T10:42:47;3.82;3.82;
61804;PMS7003;47725;47.912;7.356;2024-02-26T10:46:47;3.83;3.83;
61804;PMS7003;47725;47.912;7.356;2024-02-26T10:50:47;3.83;3.83;
61804;PMS7003;47725;47.912;7.356;2024-02-26T10:54:47;3.83;3.83;
61804;PMS7003;47725;47.912;7.356;2024-02-26T10:58:47;0.96;0.96;
61804;PMS7003;47725;47.912;7.356;2024-02-26T11:02:47;0.96;0.96;
61804;PMS7003;47725;47.912;7.356;2024-02-26T11:06:47;1.92;1.92;
61804;PMS7003;47725;47.912;7.356;2024-02-26T11:10:47;1.92;1.92;
61804;PMS7003;47725;47.912;7.356;2024-02-26T11:14:47;1.92;1.92;
61804;PMS7003;47725;47.912;7.356;2024-02-26T11:18:48;2.89;2.89;
61804;PMS7003;47725;47.912;7.356;2024-02-26T11:22:47;2.89;2.89;
61804;PMS7003;47725;47.912;7.356;2024-02-26T11:26:50;5.82;4.85;
61804;PMS7003;47725;47.912;7.356;2024-02-26T11:30:47;5.82;4.85;
61804;PMS7003;47725;47.912;7.356;2024-02-26T11:34:47;5.82;4.85;
61804;PMS7003;47725;47.912;7.356;2024-02-26T11:38:47;2.91;0.97;
61804;PMS7003;47725;47.912;7.356;2024-02-26T11:42:47;2.91;0.97;
61804;PMS7003;47725;47.912;7.356;2024-02-26T11:46:47;1.95;1.95;
61804;PMS7003;47725;47.912;7.356;2024-02-26T11:50:47;1.95;1.95;
61804;PMS7003;47725;47.912;7.356;2024-02-26T11:54:53;1.95;1.95;
61804;PMS7003;47725;47.912;7.356;2024-02-26T11:58:47;1.95;1.95;
61804;PMS7003;47725;47.912;7.356;2024-02-26T12:02:47;1.95;1.95;
61804;PMS7003;47725;47.912;7.356;2024-02-26T12:06:49;1.95;1.95;
61804;PMS7003;47725;47.912;7.356;2024-02-26T12:10:47;1.95;1.95;
61804;PMS7003;47725;47.912;7.356;2024-02-26T12:14:53;1.95;1.95;
61804;PMS7003;47725;47.912;7.356;2024-02-26T12:18:47;0.98;0.98;
61804;PMS7003;47725;47.912;7.356;2024-02-26T12:22:47;0.98;0.98;
61804;PMS7003;47725;47.912;7.356;2024-02-26T12:26:47;0.98;0.98;
61804;PMS7003;47725;47.912;7.356;2024-02-26T12:30:47;0.98;0.98;
61804;PMS7003;47725;47.912;7.356;2024-02-26T12:34:47;0.98;0.98;
61804;PMS7003;47725;47.912;7.356;2024-02-26T12:38:47;2.94;2.94;
61804;PMS7003;47725;47.912;7.356;2024-02-26T12:42:47;2.94;2.94;
61804;PMS7003;47725;47.912;7.356;2024-02-26T12:46:47;1.97;1.97;
61804;PMS7003;47725;47.912;7.356;2024-02-26T12:50:47;1.97;1.97;
61804;PMS7003;47725;47.912;7.356;2024-02-26T12:54:47;1.97;1.97;
61804;PMS7003;47725;47.912;7.356;2024-02-26T12:58:47;1.97;1.97;
61804;PMS7003;47725;47.912;7.356;2024-02-26T13:02:47;1.97;1.97;
61804;PMS7003;47725;47.912;7.356;2024-02-26T13:06:47;0.99;0.99;
61804;PMS7003;47725;47.912;7.356;2024-02-26T13:10:47;0.99;0.99;
61804;PMS7003;47725;47.912;7.356;2024-02-26T13:14:47;0.99;0.99;
61804;PMS7003;47725;47.912;7.356;2024-02-26T13:18:47;2.96;2.96;
61804;PMS7003;47725;47.912;7.356;2024-02-26T13:22:47;2.96;2.96;
61804;PMS7003;47725;47.912;7.356;2024-02-26T13:26:47;1.98;1.98;
61804;PMS7003;47725;47.912;7.356;2024-02-26T13:30:53;1.98;1.98;
61804;PMS7003;47725;47.912;7.356;2024-02-26T13:34:47;1.98;1.98;
61804;PMS7003;47725;47.912;7.356;2024-02-26T13:38:53;2.97;1.98;
61804;PMS7003;47725;47.912;7.356;2024-02-26T13:42:47;2.97;1.98;
61804;PMS7003;47725;47.912;7.356;2024-02-26T13:46:47;2.97;2.97;
61804;PMS7003;47725;47.912;7.356;2024-02-26T13:50:47;2.97;2.97;
61804;PMS7003;47725;47.912;7.356;2024-02-26T13:54:47;2.97;2.97;
61804;PMS7003;47725;47.912;7.356;2024-02-26T13:58:47;0.99;0.99;
61804;PMS7003;47725;47.912;7.356;2024-02-26T14:02:47;0.99;0.99;
61804;PMS7003;47725;47.912;7.356;2024-02-26T14:06:47;1.98;1.98;
61804;PMS7003;47725;47.912;7.356;2024-02-26T14:10:47;1.98;1.98;
61804;PMS7003;47725;47.912;7.356;2024-02-26T14:14:47;1.98;1.98;
61804;PMS7003;47725;47.912;7.356;2024-02-26T14:18:47;0.99;0.99;
61804;PMS7003;47725;47.912;7.356;2024-02-26T14:22:47;0.99;0.99;
61804;PMS7003;47725;47.912;7.356;2024-02-26T14:26:47;0.99;0.99;
61804;PMS7003;47725;47.912;7.356;2024-02-26T14:30:47;0.99;0.99;
61804;PMS7003;47725;47.912;7.356;2024-02-26T14:34:47;0.99;0.99;
61804;PMS7003;47725;47.912;7.356;2024-02-26T14:38:47;1.99;1.99;
61804;PMS7003;47725;47.912;7.356;2024-02-26T14:42:47;1.99;1.99;
61804;PMS7003;47725;47.912;7.356;2024-02-26T14:46:47;2.98;2.98;
61804;PMS7003;47725;47.912;7.356;2024-02-26T14:50:47;2.98;2.98;
61804;PMS7003;47725;47.912;7.356;2024-02-26T14:54:47;2.98;2.98;
61804;PMS7003;47725;47.912;7.356;2024-02-26T14:58:47;2.98;1.99;
61804;PMS7003;47725;47.912;7.356;2024-02-26T15:02:47;2.98;1.99;
61804;PMS7003;47725;47.912;7.356;2024-02-26T15:06:47;2.98;2.98;
61804;PMS7003;47725;47.912;7.356;2024-02-26T15:10:47;2.98;2.98;
61804;PMS7003;47725;47.912;7.356;2024-02-26T15:14:47;2.98;2.98;
61804;PMS7003;47725;47.912;7.356;2024-02-26T15:18:47;3.97;3.97;
61804;PMS7003;47725;47.912;7.356;2024-02-26T15:22:47;3.97;3.97;
61804;PMS7003;47725;47.912;7.356;2024-02-26T15:26:47;2.97;2.97;
61804;PMS7003;47725;47.912;7.356;2024-02-26T15:30:47;2.97;2.97;
61804;PMS7003;47725;47.912;7.356;2024-02-26T15:34:47;2.97;2.97;
61804;PMS7003;47725;47.912;7.356;2024-02-26T15:38:47;2.97;0.99;
61804;PMS7003;47725;47.912;7.356;2024-02-26T15:42:47;2.97;0.99;
61804;PMS7003;47725;47.912;7.356;2024-02-26T15:46:47;1.98;1.98;
61804;PMS7003;47725;47.912;7.356;2024-02-26T15:50:47;1.98;1.98;
61804;PMS7003;47725;47.912;7.356;2024-02-26T15:54:47;1.98;1.98;
61804;PMS7003;47725;47.912;7.356;2024-02-26T15:58:47;2.97;1.98;
61804;PMS7003;47725;47.912;7.356;2024-02-26T16:02:47;2.97;1.98;
61804;PMS7003;47725;47.912;7.356;2024-02-26T16:06:48;3.95;3.95;
61804;PMS7003;47725;47.912;7.356;2024-02-26T16:10:47;3.95;3.95;
61804;PMS7003;47725;47.912;7.356;2024-02-26T16:14:49;3.95;3.95;
61804;PMS7003;47725;47.912;7.356;2024-02-26T16:18:47;2.96;1.97;
61804;PMS7003;47725;47.912;7.356;2024-02-26T16:22:47;2.96;1.97;
61804;PMS7003;47725;47.912;7.356;2024-02-26T16:26:47;3.95;2.96;
61804;PMS7003;47725;47.912;7.356;2024-02-26T16:30:47;3.95;2.96;
61804;PMS7003;47725;47.912;7.356;2024-02-26T16:34:47;3.95;2.96;
61804;PMS7003;47725;47.912;7.356;2024-02-26T16:38:47;8.88;7.89;
61804;PMS7003;47725;47.912;7.356;2024-02-26T16:42:47;8.88;7.89;
61804;PMS7003;47725;47.912;7.356;2024-02-26T16:46:47;5.92;5.92;
61804;PMS7003;47725;47.912;7.356;2024-02-26T16:50:47;5.92;5.92;
61804;PMS7003;47725;47.912;7.356;2024-02-26T16:54:47;5.92;5.92;
61804;PMS7003;47725;47.912;7.356;2024-02-26T16:58:47;5.91;4.93;
61804;PMS7003;47725;47.912;7.356;2024-02-26T17:02:47;5.91;4.93;
61804;PMS7003;47725;47.912;7.356;2024-02-26T17:06:47;9.84;8.86;
61804;PMS7003;47725;47.912;7.356;2024-02-26T17:10:47;9.84;8.86;
61804;PMS7003;47725;47.912;7.356;2024-02-26T17:14:47;9.84;8.86;
61804;PMS7003;47725;47.912;7.356;2024-02-26T17:18:47;7.87;4.92;
61804;PMS7003;47725;47.912;7.356;2024-02-26T17:22:47;7.87;4.92;
61804;PMS7003;47725;47.912;7.356;2024-02-26T17:26:46;2.95;2.95;
61804;PMS7003;47725;47.912;7.356;2024-02-26T17:30:46;2.95;2.95;
61804;PMS7003;47725;47.912;7.356;2024-02-26T17:34:46;2.95;2.95;
61804;PMS7003;47725;47.912;7.356;2024-02-26T17:38:47;3.93;2.94;
61804;PMS7003;47725;47.912;7.356;2024-02-26T17:42:46;3.93;2.94;
61804;PMS7003;47725;47.912;7.356;2024-02-26T17:46:46;3.92;3.92;
61804;PMS7003;47725;47.912;7.356;2024-02-26T17:50:46;3.92;3.92;
61804;PMS7003;47725;47.912;7.356;2024-02-26T17:54:46;3.92;3.92;
61804;PMS7003;47725;47.912;7.356;2024-02-26T17:58:46;7.83;6.85;
61804;PMS7003;47725;47.912;7.356;2024-02-26T18:02:47;7.83;6.85;
61804;PMS7003;47725;47.912;7.356;2024-02-26T18:06:46;9.78;9.78;
61804;PMS7003;47725;47.912;7.356;2024-02-26T18:10:47;9.78;9.78;
61804;PMS7003;47725;47.912;7.356;2024-02-26T18:14:46;9.78;9.78;
61804;PMS7003;47725;47.912;7.356;2024-02-26T18:18:46;8.79;7.82;
61804;PMS7003;47725;47.912;7.356;2024-02-26T18:22:46;8.79;7.82;
61804;PMS7003;47725;47.912;7.356;2024-02-26T18:26:46;19.53;14.65;
61804;PMS7003;47725;47.912;7.356;2024-02-26T18:30:46;19.53;14.65;
61804;PMS7003;47725;47.912;7.356;2024-02-26T18:34:46;19.53;14.65;
61804;PMS7003;47725;47.912;7.356;2024-02-26T18:38:46;13.66;11.71;
61804;PMS7003;47725;47.912;7.356;2024-02-26T18:42:46;13.66;11.71;
61804;PMS7003;47725;47.912;7.356;2024-02-26T18:46:46;8.78;8.78;
61804;PMS7003;47725;47.912;7.356;2024-02-26T18:50:46;8.78;8.78;
61804;PMS7003;47725;47.912;7.356;2024-02-26T18:54:46;8.78;8.78;
61804;PMS7003;47725;47.912;7.356;2024-02-26T18:58:46;8.77;8.77;
61804;PMS7003;47725;47.912;7.356;2024-02-26T19:02:46;8.77;8.77;
61804;PMS7003;47725;47.912;7.356;2024-02-26T19:06:46;6.81;6.81;
61804;PMS7003;47725;47.912;7.356;2024-02-26T19:10:46;6.81;6.81;
61804;PMS7003;47725;47.912;7.356;2024-02-26T19:14:46;6.81;6.81;
61804;PMS7003;47725;47.912;7.356;2024-02-26T19:18:46;11.69;9.74;
61804;PMS7003;47725;47.912;7.356;2024-02-26T19:22:47;11.69;9.74;
61804;PMS7003;47725;47.912;7.356;2024-02-26T19:26:46;14.60;11.68;
61804;PMS7003;47725;47.912;7.356;2024-02-26T19:30:46;14.60;11.68;
61804;PMS7003;47725;47.912;7.356;2024-02-26T19:34:46;14.60;11.68;
61804;PMS7003;47725;47.912;7.356;2024-02-26T19:38:46;8.76;8.76;
61804;PMS7003;47725;47.912;7.356;2024-02-26T19:42:46;8.76;8.76;
61804;PMS7003;47725;47.912;7.356;2024-02-26T19:46:46;6.80;6.80;
61804;PMS7003;47725;47.912;7.356;2024-02-26T19:50:46;6.80;6.80;
61804;PMS7003;47725;47.912;7.356;2024-02-26T19:54:46;6.80;6.80;
61804;PMS7003;47725;47.912;7.356;2024-02-26T19:58:46;23.30;20.39;
61804;PMS7003;47725;47.912;7.356;2024-02-26T20:02:46;23.30;20.39;
61804;PMS7003;47725;47.912;7.356;2024-02-26T20:06:46;10.68;10.68;
61804;PMS7003;47725;47.912;7.356;2024-02-26T20:10:46;10.68;10.68;
61804;PMS7003;47725;47.912;7.356;2024-02-26T20:14:46;10.68;10.68;
61804;PMS7003;47725;47.912;7.356;2024-02-26T20:18:46;14.55;13.58;
61804;PMS7003;47725;47.912;7.356;2024-02-26T20:22:46;14.55;13.58;
61804;PMS7003;47725;47.912;7.356;2024-02-26T20:26:46;15.52;12.61;
61804;PMS7003;47725;47.912;7.356;2024-02-26T20:30:46;15.52;12.61;
61804;PMS7003;47725;47.912;7.356;2024-02-26T20:34:46;15.52;12.61;
61804;PMS7003;47725;47.912;7.356;2024-02-26T20:38:46;14.51;14.51;
61804;PMS7003;47725;47.912;7.356;2024-02-26T20:42:46;14.51;14.51;
61804;PMS7003;47725;47.912;7.356;2024-02-26T20:46:46;8.71;7.74;
61804;PMS7003;47725;47.912;7.356;2024-02-26T20:50:46;8.71;7.74;
61804;PMS7003;47725;47.912;7.356;2024-02-26T20:54:46;8.71;7.74;
61804;PMS7003;47725;47.912;7.356;2024-02-26T20:58:46;7.75;7.75;
61804;PMS7003;47725;47.912;7.356;2024-02-26T21:02:46;7.75;7.75;
61804;PMS7003;47725;47.912;7.356;2024-02-26T21:06:46;12.60;9.69;
61804;PMS7003;47725;47.912;7.356;2024-02-26T21:10:46;12.60;9.69;
61804;PMS7003;47725;47.912;7.356;2024-02-26T21:14:46;12.60;9.69;
61804;PMS7003;47725;47.912;7.356;2024-02-26T21:18:46;10.65;9.68;
61804;PMS7003;47725;47.912;7.356;2024-02-26T21:22:46;10.65;9.68;
61804;PMS7003;47725;47.912;7.356;2024-02-26T21:26:46;11.63;11.63;
61804;PMS7003;47725;47.912;7.356;2024-02-26T21:30:46;11.63;11.63;
61804;PMS7003;47725;47.912;7.356;2024-02-26T21:34:46;11.63;11.63;
61804;PMS7003;47725;47.912;7.356;2024-02-26T21:38:46;15.51;12.60;
61804;PMS7003;47725;47.912;7.356;2024-02-26T21:42:46;15.51;12.60;
61804;PMS7003;47725;47.912;7.356;2024-02-26T21:46:46;14.53;14.53;
61804;PMS7003;47725;47.912;7.356;2024-02-26T21:50:46;14.53;14.53;
61804;PMS7003;47725;47.912;7.356;2024-02-26T21:54:49;14.53;14.53;
61804;PMS7003;47725;47.912;7.356;2024-02-26T21:58:46;9.68;9.68;
61804;PMS7003;47725;47.912;7.356;2024-02-26T22:02:46;9.68;9.68;
61804;PMS7003;47725;47.912;7.356;2024-02-26T22:06:46;8.72;7.75;
61804;PMS7003;47725;47.912;7.356;2024-02-26T22:10:46;8.72;7.75;
61804;PMS7003;47725;47.912;7.356;2024-02-26T22:14:46;8.72;7.75;
61804;PMS7003;47725;47.912;7.356;2024-02-26T22:18:46;12.58;9.68;
61804;PMS7003;47725;47.912;7.356;2024-02-26T22:22:46;12.58;9.68;
61804;PMS7003;47725;47.912;7.356;2024-02-26T22:26:46;11.62;11.62;
61804;PMS7003;47725;47.912;7.356;2024-02-26T22:30:46;11.62;11.62;
61804;PMS7003;47725;47.912;7.356;2024-02-26T22:34:46;11.62;11.62;
61804;PMS7003;47725;47.912;7.356;2024-02-26T22:38:46;12.57;8.70;
61804;PMS7003;47725;47.912;7.356;2024-02-26T22:42:46;12.57;8.70;
61804;PMS7003;47725;47.912;7.356;2024-02-26T22:46:46;8.67;8.67;
61804;PMS7003;47725;47.912;7.356;2024-02-26T22:50:46;8.67;8.67;
61804;PMS7003;47725;47.912;7.356;2024-02-26T22:54:46;8.67;8.67;
61804;PMS7003;47725;47.912;7.356;2024-02-26T22:58:46;14.42;13.46;
61804;PMS7003;47725;47.912;7.356;2024-02-26T23:02:46;14.42;13.46;
61804;PMS7003;47725;47.912;7.356;2024-02-26T23:06:46;18.32;15.43;
61804;PMS7003;47725;47.912;7.356;2024-02-26T23:10:46;18.32;15.43;
61804;PMS7003;47725;47.912;7.356;2024-02-26T23:14:46;18.32;15.43;
61804;PMS7003;47725;47.912;7.356;2024-02-26T23:18:46;17.32;14.44;
61804;PMS7003;47725;47.912;7.356;2024-02-26T23:22:47;17.32;14.44;
61804;PMS7003;47725;47.912;7.356;2024-02-26T23:26:46;18.29;18.29;
61804;PMS7003;47725;47.912;7.356;2024-02-26T23:30:46;18.29;18.29;
61804;PMS7003;47725;47.912;7.356;2024-02-26T23:34:46;18.29;18.29;
61804;PMS7003;47725;47.912;7.356;2024-02-26T23:38:46;22.14;19.26;
61804;PMS7003;47725;47.912;7.356;2024-02-26T23:42:46;22.14;19.26;
61804;PMS7003;47725;47.912;7.356;2024-02-26T23:46:46;20.23;18.30;
61804;PMS7003;47725;47.912;7.356;2024-02-26T23:50:46;20.23;18.30;
61804;PMS7003;47725;47.912;7.356;2024-02-26T23:54:46;20.23;18.30;
61804;PMS7003;47725;47.912;7.356;2024-02-26T23:58:46;13.46;9.62;
